sensor_id;sensor_type;location;lat;lon;timestamp;pressure;altitude;pressure_sealevel;temperature;humidity
9187;BME280;7273;48.902;9.410;2023-03-15T00:00:27;97600.66;;;2.42;71.30
9187;BME280;7273;48.902;9.410;2023-03-15T00:02:52;97604.47;;;2.46;71.19
9187;BME280;7273;48.902;9.410;2023-03-15T00:05:18;97617.03;;;2.45;71.44
9187;BME280;7273;48.902;9.410;2023-03-15T00:07:43;97620.97;;;2.43;71.57
9187;BME280;7273;48.902;9.410;2023-03-15T00:10:09;97625.81;;;2.46;71.56
9187;BME280;7273;48.902;9.410;2023-03-15T00:12:35;97629.53;;;2.45;71.64
9187;BME280;7273;48.902;9.410;2023-03-15T00:15:00;97638.69;;;2.49;72.00
9187;BME280;7273;48.902;9.410;2023-03-15T00:17:25;97636.59;;;2.51;71.66
9187;BME280;7273;48.902;9.410;2023-03-15T00:19:51;97641.59;;;2.47;71.53
9187;BME280;7273;48.902;9.410;2023-03-15T00:22:16;97645.56;;;2.45;71.74
9187;BME280;7273;48.902;9.410;2023-03-15T00:24:41;97658.31;;;2.43;72.08
9187;BME280;7273;48.902;9.410;2023-03-15T00:27:08;97664.22;;;2.45;71.91
9187;BME280;7273;48.902;9.410;2023-03-15T00:29:33;97670.69;;;2.49;71.91
9187;BME280;7273;48.902;9.410;2023-03-15T00:31:59;97676.38;;;2.52;72.14
9187;BME280;7273;48.902;9.410;2023-03-15T00:34:24;97684.97;;;2.54;72.58
9187;BME280;7273;48.902;9.410;2023-03-15T00:36:50;97688.56;;;2.60;72.42
9187;BME280;7273;48.902;9.410;2023-03-15T00:39:20;97685.44;;;2.63;72.46
9187;BME280;7273;48.902;9.410;2023-03-15T00:41:46;97693.81;;;2.55;72.74
9187;BME280;7273;48.902;9.410;2023-03-15T00:44:12;97696.72;;;2.53;72.04
9187;BME280;7273;48.902;9.410;2023-03-15T00:46:37;97698.09;;;2.56;72.43
9187;BME280;7273;48.902;9.410;2023-03-15T00:49:02;97702.72;;;2.60;72.10
9187;BME280;7273;48.902;9.410;2023-03-15T00:51:28;97702.16;;;2.58;72.59
9187;BME280;7273;48.902;9.410;2023-03-15T00:53:55;97709.56;;;2.56;72.51
9187;BME280;7273;48.902;9.410;2023-03-15T00:56:23;97710.28;;;2.52;72.13
9187;BME280;7273;48.902;9.410;2023-03-15T00:58:49;97715.63;;;2.52;72.35
9187;BME280;7273;48.902;9.410;2023-03-15T01:01:23;97716.28;;;2.59;72.25
9187;BME280;7273;48.902;9.410;2023-03-15T01:03:49;97719.91;;;2.53;72.03
9187;BME280;7273;48.902;9.410;2023-03-15T01:06:22;97729.06;;;2.57;72.30
9187;BME280;7273;48.902;9.410;2023-03-15T01:08:48;97733.84;;;2.55;71.84
9187;BME280;7273;48.902;9.410;2023-03-15T01:11:17;97734.97;;;2.59;72.34
9187;BME280;7273;48.902;9.410;2023-03-15T01:13:43;97734.31;;;2.52;72.41
9187;BME280;7273;48.902;9.410;2023-03-15T01:16:11;97740.31;;;2.59;72.36
9187;BME280;7273;48.902;9.410;2023-03-15T01:18:37;97746.22;;;2.61;72.43
9187;BME280;7273;48.902;9.410;2023-03-15T01:21:06;97747.84;;;2.62;72.05
9187;BME280;7273;48.902;9.410;2023-03-15T01:23:31;97745.16;;;2.62;73.65
9187;BME280;7273;48.902;9.410;2023-03-15T01:26:01;97758.19;;;2.58;73.39
9187;BME280;7273;48.902;9.410;2023-03-15T01:28:27;97749.50;;;2.51;72.91
9187;BME280;7273;48.902;9.410;2023-03-15T01:30:53;97744.28;;;2.56;72.27
9187;BME280;7273;48.902;9.410;2023-03-15T01:33:19;97754.47;;;2.59;72.75
9187;BME280;7273;48.902;9.410;2023-03-15T01:35:45;97758.53;;;2.62;72.54
9187;BME280;7273;48.902;9.410;2023-03-15T01:38:11;97761.88;;;2.69;72.16
9187;BME280;7273;48.902;9.410;2023-03-15T01:40:41;97764.09;;;2.72;71.87
9187;BME280;7273;48.902;9.410;2023-03-15T01:48:31;97766.53;;;2.73;72.56
9187;BME280;7273;48.902;9.410;2023-03-15T01:51:01;97780.22;;;2.65;72.32
9187;BME280;7273;48.902;9.410;2023-03-15T01:53:29;97771.66;;;2.63;72.11
9187;BME280;7273;48.902;9.410;2023-03-15T01:55:56;97775.13;;;2.64;71.78
9187;BME280;7273;48.902;9.410;2023-03-15T01:58:25;97783.94;;;2.64;71.59
9187;BME280;7273;48.902;9.410;2023-03-15T02:00:51;97783.13;;;2.64;72.36
9187;BME280;7273;48.902;9.410;2023-03-15T02:03:22;97788.34;;;2.59;72.73
9187;BME280;7273;48.902;9.410;2023-03-15T02:05:54;97792.44;;;2.61;72.15
9187;BME280;7273;48.902;9.410;2023-03-15T02:08:21;97795.81;;;2.57;73.39
9187;BME280;7273;48.902;9.410;2023-03-15T02:10:51;97794.16;;;2.56;73.32
9187;BME280;7273;48.902;9.410;2023-03-15T02:13:20;97806.47;;;2.57;73.26
9187;BME280;7273;48.902;9.410;2023-03-15T02:15:50;97806.69;;;2.55;74.06
9187;BME280;7273;48.902;9.410;2023-03-15T02:18:18;97809.56;;;2.54;73.78
9187;BME280;7273;48.902;9.410;2023-03-15T02:23:49;97805.06;;;2.54;73.21
9187;BME280;7273;48.902;9.410;2023-03-15T02:29:05;97800.66;;;2.48;73.63
9187;BME280;7273;48.902;9.410;2023-03-15T02:31:31;97804.47;;;2.52;73.24
9187;BME280;7273;48.902;9.410;2023-03-15T02:34:03;97801.44;;;2.49;73.15
9187;BME280;7273;48.902;9.410;2023-03-15T02:36:29;97804.34;;;2.47;72.93
9187;BME280;7273;48.902;9.410;2023-03-15T02:38:56;97803.56;;;2.47;72.19
9187;BME280;7273;48.902;9.410;2023-03-15T02:41:34;97811.81;;;2.45;72.29
9187;BME280;7273;48.902;9.410;2023-03-15T02:46:32;97815.38;;;2.39;72.30
9187;BME280;7273;48.902;9.410;2023-03-15T02:48:58;97819.56;;;2.35;72.13
9187;BME280;7273;48.902;9.410;2023-03-15T02:51:27;97835.44;;;2.30;71.83
9187;BME280;7273;48.902;9.410;2023-03-15T02:53:53;97829.66;;;2.33;72.09
9187;BME280;7273;48.902;9.410;2023-03-15T02:56:18;97833.38;;;2.32;71.87
9187;BME280;7273;48.902;9.410;2023-03-15T02:58:44;97845.28;;;2.30;72.11
9187;BME280;7273;48.902;9.410;2023-03-15T03:01:11;97851.91;;;2.27;71.64
9187;BME280;7273;48.902;9.410;2023-03-15T03:03:40;97857.69;;;2.24;71.24
9187;BME280;7273;48.902;9.410;2023-03-15T03:06:08;97862.00;;;2.25;71.44
9187;BME280;7273;48.902;9.410;2023-03-15T03:08:33;97866.72;;;2.23;71.62
9187;BME280;7273;48.902;9.410;2023-03-15T03:10:59;97881.22;;;2.16;71.56
9187;BME280;7273;48.902;9.410;2023-03-15T03:13:25;97881.56;;;2.19;71.53
9187;BME280;7273;48.902;9.410;2023-03-15T03:15:50;97890.00;;;2.16;71.84
9187;BME280;7273;48.902;9.410;2023-03-15T03:18:23;97893.13;;;2.13;71.94
9187;BME280;7273;48.902;9.410;2023-03-15T03:20:49;97899.75;;;2.11;72.02
9187;BME280;7273;48.902;9.410;2023-03-15T03:23:14;97908.22;;;2.08;71.99
9187;BME280;7273;48.902;9.410;2023-03-15T03:25:39;97911.31;;;2.05;72.32
9187;BME280;7273;48.902;9.410;2023-03-15T03:28:05;97923.38;;;2.07;72.14
9187;BME280;7273;48.902;9.410;2023-03-15T03:30:30;97927.66;;;2.08;72.66
9187;BME280;7273;48.902;9.410;2023-03-15T03:32:56;97919.53;;;2.03;71.91
9187;BME280;7273;48.902;9.410;2023-03-15T03:35:21;97927.06;;;2.06;72.12
9187;BME280;7273;48.902;9.410;2023-03-15T03:37:47;97920.13;;;2.05;72.12
9187;BME280;7273;48.902;9.410;2023-03-15T03:40:12;97931.25;;;2.02;72.31
9187;BME280;7273;48.902;9.410;2023-03-15T03:42:38;97930.44;;;2.02;72.50
9187;BME280;7273;48.902;9.410;2023-03-15T03:45:03;97938.44;;;2.02;71.88
9187;BME280;7273;48.902;9.410;2023-03-15T03:47:29;97941.31;;;2.00;72.20
9187;BME280;7273;48.902;9.410;2023-03-15T03:49:54;97943.38;;;1.98;71.68
9187;BME280;7273;48.902;9.410;2023-03-15T03:52:20;97949.31;;;2.00;72.28
9187;BME280;7273;48.902;9.410;2023-03-15T03:54:45;97957.53;;;1.99;71.92
9187;BME280;7273;48.902;9.410;2023-03-15T03:57:10;97958.13;;;2.01;72.10
9187;BME280;7273;48.902;9.410;2023-03-15T03:59:36;97962.28;;;1.97;71.71
9187;BME280;7273;48.902;9.410;2023-03-15T04:02:01;97962.50;;;1.95;72.53
9187;BME280;7273;48.902;9.410;2023-03-15T04:04:27;97963.09;;;1.97;72.28
9187;BME280;7273;48.902;9.410;2023-03-15T04:06:52;97970.13;;;1.92;71.91
9187;BME280;7273;48.902;9.410;2023-03-15T04:09:18;97973.63;;;1.92;72.13
9187;BME280;7273;48.902;9.410;2023-03-15T04:11:46;97976.81;;;1.83;72.25
9187;BME280;7273;48.902;9.410;2023-03-15T04:14:13;97975.53;;;1.85;72.08
9187;BME280;7273;48.902;9.410;2023-03-15T04:16:38;97989.19;;;1.77;72.28
9187;BME280;7273;48.902;9.410;2023-03-15T04:19:04;97981.25;;;1.71;72.43
9187;BME280;7273;48.902;9.410;2023-03-15T04:21:30;97987.78;;;1.75;72.14
9187;BME280;7273;48.902;9.410;2023-03-15T04:23:59;97990.53;;;1.68;72.49
9187;BME280;7273;48.902;9.410;2023-03-15T04:26:26;97990.16;;;1.83;72.51
9187;BME280;7273;48.902;9.410;2023-03-15T04:28:57;98001.03;;;1.81;72.01
9187;BME280;7273;48.902;9.410;2023-03-15T04:31:23;98002.44;;;1.84;72.28
9187;BME280;7273;48.902;9.410;2023-03-15T04:33:55;98001.97;;;1.87;71.76
9187;BME280;7273;48.902;9.410;2023-03-15T04:36:21;98006.75;;;1.85;71.82
9187;BME280;7273;48.902;9.410;2023-03-15T04:38:48;98006.97;;;1.83;71.21
9187;BME280;7273;48.902;9.410;2023-03-15T04:41:16;98001.56;;;1.72;71.56
9187;BME280;7273;48.902;9.410;2023-03-15T04:43:42;98013.38;;;1.76;71.77
9187;BME280;7273;48.902;9.410;2023-03-15T04:46:09;98007.53;;;1.67;71.38
9187;BME280;7273;48.902;9.410;2023-03-15T04:48:36;98015.38;;;1.62;71.74
9187;BME280;7273;48.902;9.410;2023-03-15T04:51:01;98018.25;;;1.61;71.61
9187;BME280;7273;48.902;9.410;2023-03-15T04:53:27;98024.84;;;1.58;71.71
9187;BME280;7273;48.902;9.410;2023-03-15T04:55:53;98002.78;;;1.51;71.74
9187;BME280;7273;48.902;9.410;2023-03-15T04:58:18;98020.03;;;1.49;71.29
9187;BME280;7273;48.902;9.410;2023-03-15T05:00:44;98012.50;;;1.46;72.06
9187;BME280;7273;48.902;9.410;2023-03-15T05:03:10;98011.63;;;1.27;72.25
9187;BME280;7273;48.902;9.410;2023-03-15T05:05:35;98014.50;;;1.25;72.65
9187;BME280;7273;48.902;9.410;2023-03-15T05:08:00;98019.69;;;1.20;72.92
9187;BME280;7273;48.902;9.410;2023-03-15T05:10:26;98009.47;;;1.17;72.76
9187;BME280;7273;48.902;9.410;2023-03-15T05:12:54;98013.97;;;1.17;72.60
9187;BME280;7273;48.902;9.410;2023-03-15T05:15:19;98016.41;;;1.18;73.03
9187;BME280;7273;48.902;9.410;2023-03-15T05:17:45;98010.03;;;1.26;72.61
9187;BME280;7273;48.902;9.410;2023-03-15T05:20:13;98011.63;;;1.27;72.93
9187;BME280;7273;48.902;9.410;2023-03-15T05:22:39;98005.47;;;1.26;74.00
9187;BME280;7273;48.902;9.410;2023-03-15T05:25:05;98010.31;;;1.36;73.79
9187;BME280;7273;48.902;9.410;2023-03-15T05:27:30;98011.34;;;1.35;73.53
9187;BME280;7273;48.902;9.410;2023-03-15T05:29:59;98012.75;;;1.37;73.23
9187;BME280;7273;48.902;9.410;2023-03-15T05:32:31;98010.47;;;1.41;73.19
9187;BME280;7273;48.902;9.410;2023-03-15T05:35:02;98017.75;;;1.52;72.72
9187;BME280;7273;48.902;9.410;2023-03-15T05:37:29;98016.63;;;1.42;72.83
9187;BME280;7273;48.902;9.410;2023-03-15T05:39:56;98016.28;;;1.31;72.75
9187;BME280;7273;48.902;9.410;2023-03-15T05:42:22;98014.28;;;1.27;72.88
9187;BME280;7273;48.902;9.410;2023-03-15T05:44:54;98019.03;;;1.25;72.60
9187;BME280;7273;48.902;9.410;2023-03-15T05:47:21;98019.84;;;1.25;72.68
9187;BME280;7273;48.902;9.410;2023-03-15T05:49:47;98025.28;;;1.37;72.76
9187;BME280;7273;48.902;9.410;2023-03-15T05:52:13;98028.09;;;1.42;72.76
9187;BME280;7273;48.902;9.410;2023-03-15T05:54:38;98031.72;;;1.48;72.94
9187;BME280;7273;48.902;9.410;2023-03-15T05:57:04;98035.34;;;1.53;72.90
9187;BME280;7273;48.902;9.410;2023-03-15T05:59:29;98040.03;;;1.58;72.46
9187;BME280;7273;48.902;9.410;2023-03-15T06:01:55;98032.25;;;1.56;72.46
9187;BME280;7273;48.902;9.410;2023-03-15T06:04:21;98038.63;;;1.55;72.81
9187;BME280;7273;48.902;9.410;2023-03-15T06:06:47;98035.22;;;1.66;72.75
9187;BME280;7273;48.902;9.410;2023-03-15T06:09:12;98027.22;;;1.66;72.54
9187;BME280;7273;48.902;9.410;2023-03-15T06:11:38;98032.94;;;1.70;72.63
9187;BME280;7273;48.902;9.410;2023-03-15T06:14:03;98038.34;;;1.63;72.19
9187;BME280;7273;48.902;9.410;2023-03-15T06:16:28;98050.78;;;1.69;72.04
9187;BME280;7273;48.902;9.410;2023-03-15T06:18:54;98052.41;;;1.70;72.26
9187;BME280;7273;48.902;9.410;2023-03-15T06:21:19;98056.84;;;1.76;71.91
9187;BME280;7273;48.902;9.410;2023-03-15T06:23:45;98060.47;;;1.82;71.86
9187;BME280;7273;48.902;9.410;2023-03-15T06:26:10;98063.97;;;1.82;71.84
9187;BME280;7273;48.902;9.410;2023-03-15T06:28:35;98060.06;;;2.03;71.29
9187;BME280;7273;48.902;9.410;2023-03-15T06:31:14;98063.88;;;2.72;71.60
9187;BME280;7273;48.902;9.410;2023-03-15T06:33:40;98055.44;;;3.28;71.77
9187;BME280;7273;48.902;9.410;2023-03-15T06:36:05;98055.84;;;3.55;71.17
9187;BME280;7273;48.902;9.410;2023-03-15T06:38:31;98061.06;;;3.84;71.86
9187;BME280;7273;48.902;9.410;2023-03-15T06:40:58;98055.59;;;3.68;72.23
9187;BME280;7273;48.902;9.410;2023-03-15T06:43:26;98064.06;;;3.88;72.54
9187;BME280;7273;48.902;9.410;2023-03-15T06:45:52;98061.34;;;4.11;73.19
9187;BME280;7273;48.902;9.410;2023-03-15T06:48:20;98070.13;;;3.83;72.65
9187;BME280;7273;48.902;9.410;2023-03-15T06:50:45;98063.28;;;3.76;72.57
9187;BME280;7273;48.902;9.410;2023-03-15T06:53:11;98064.22;;;3.58;72.97
9187;BME280;7273;48.902;9.410;2023-03-15T06:55:36;98069.88;;;3.50;72.74
9187;BME280;7273;48.902;9.410;2023-03-15T06:58:02;98064.63;;;3.44;72.77
9187;BME280;7273;48.902;9.410;2023-03-15T07:00:27;98066.97;;;3.40;73.61
9187;BME280;7273;48.902;9.410;2023-03-15T07:02:53;98072.66;;;3.55;74.14
9187;BME280;7273;48.902;9.410;2023-03-15T07:05:18;98070.88;;;4.30;74.96
9187;BME280;7273;48.902;9.410;2023-03-15T07:07:43;98075.91;;;4.66;74.26
9187;BME280;7273;48.902;9.410;2023-03-15T07:10:09;98064.03;;;5.35;75.18
9187;BME280;7273;48.902;9.410;2023-03-15T07:12:35;98074.50;;;5.53;74.86
9187;BME280;7273;48.902;9.410;2023-03-15T07:15:00;98077.69;;;6.21;75.87
9187;BME280;7273;48.902;9.410;2023-03-15T07:17:26;98082.28;;;6.42;75.87
9187;BME280;7273;48.902;9.410;2023-03-15T07:19:51;98075.03;;;6.64;76.10
9187;BME280;7273;48.902;9.410;2023-03-15T07:22:17;98072.69;;;7.21;75.73
9187;BME280;7273;48.902;9.410;2023-03-15T07:24:42;98073.09;;;7.08;74.66
9187;BME280;7273;48.902;9.410;2023-03-15T07:27:11;98069.31;;;6.82;74.45
9187;BME280;7273;48.902;9.410;2023-03-15T07:29:37;98087.78;;;6.74;74.53
9187;BME280;7273;48.902;9.410;2023-03-15T07:32:02;98088.69;;;6.63;73.69
9187;BME280;7273;48.902;9.410;2023-03-15T07:34:28;98085.72;;;6.38;73.13
9187;BME280;7273;48.902;9.410;2023-03-15T07:36:53;98098.41;;;5.88;72.06
9187;BME280;7273;48.902;9.410;2023-03-15T07:39:19;98092.41;;;5.97;71.43
9187;BME280;7273;48.902;9.410;2023-03-15T07:41:45;98090.75;;;5.96;71.33
9187;BME280;7273;48.902;9.410;2023-03-15T07:44:10;98098.47;;;5.93;71.07
9187;BME280;7273;48.902;9.410;2023-03-15T07:46:35;98102.78;;;5.77;70.39
9187;BME280;7273;48.902;9.410;2023-03-15T07:49:01;98100.28;;;5.71;69.79
9187;BME280;7273;48.902;9.410;2023-03-15T07:51:26;98099.78;;;5.74;69.28
9187;BME280;7273;48.902;9.410;2023-03-15T07:53:52;98102.78;;;5.77;69.08
9187;BME280;7273;48.902;9.410;2023-03-15T07:56:18;98110.34;;;5.64;67.66
9187;BME280;7273;48.902;9.410;2023-03-15T07:58:43;98124.41;;;5.71;67.94
9187;BME280;7273;48.902;9.410;2023-03-15T08:01:08;98121.44;;;5.84;68.07
9187;BME280;7273;48.902;9.410;2023-03-15T08:03:34;98108.59;;;6.02;67.52
9187;BME280;7273;48.902;9.410;2023-03-15T08:06:00;98108.91;;;5.89;65.93
9187;BME280;7273;48.902;9.410;2023-03-15T08:08:26;98107.97;;;6.17;66.35
9187;BME280;7273;48.902;9.410;2023-03-15T08:10:51;98108.13;;;6.27;67.00
9187;BME280;7273;48.902;9.410;2023-03-15T08:13:17;98108.28;;;6.20;65.77
9187;BME280;7273;48.902;9.410;2023-03-15T08:15:45;98109.63;;;6.01;64.84
9187;BME280;7273;48.902;9.410;2023-03-15T08:18:11;98111.13;;;6.14;65.36
9187;BME280;7273;48.902;9.410;2023-03-15T08:20:37;98117.25;;;6.09;65.37
9187;BME280;7273;48.902;9.410;2023-03-15T08:23:03;98113.91;;;6.19;65.46
9187;BME280;7273;48.902;9.410;2023-03-15T08:25:28;98110.38;;;5.97;63.86
9187;BME280;7273;48.902;9.410;2023-03-15T08:27:54;98121.66;;;6.15;63.98
9187;BME280;7273;48.902;9.410;2023-03-15T08:30:20;98116.22;;;5.94;63.07
9187;BME280;7273;48.902;9.410;2023-03-15T08:32:46;98122.28;;;6.06;63.82
9187;BME280;7273;48.902;9.410;2023-03-15T08:35:13;98120.34;;;6.01;63.56
9187;BME280;7273;48.902;9.410;2023-03-15T08:37:39;98119.94;;;6.09;62.82
9187;BME280;7273;48.902;9.410;2023-03-15T08:40:06;98129.63;;;6.27;63.16
9187;BME280;7273;48.902;9.410;2023-03-15T08:42:36;98128.47;;;6.23;62.57
9187;BME280;7273;48.902;9.410;2023-03-15T08:45:04;98129.94;;;6.14;61.80
9187;BME280;7273;48.902;9.410;2023-03-15T08:47:32;98131.25;;;6.11;61.75
9187;BME280;7273;48.902;9.410;2023-03-15T08:50:00;98140.47;;;6.37;62.07
9187;BME280;7273;48.902;9.410;2023-03-15T08:52:26;98139.03;;;6.29;61.37
9187;BME280;7273;48.902;9.410;2023-03-15T08:54:52;98134.63;;;6.40;61.65
9187;BME280;7273;48.902;9.410;2023-03-15T08:57:17;98137.31;;;6.40;60.94
9187;BME280;7273;48.902;9.410;2023-03-15T08:59:43;98141.00;;;6.55;61.83
9187;BME280;7273;48.902;9.410;2023-03-15T09:02:09;98140.44;;;6.53;61.67
9187;BME280;7273;48.902;9.410;2023-03-15T09:04:36;98141.91;;;6.61;60.52
9187;BME280;7273;48.902;9.410;2023-03-15T09:07:01;98149.59;;;6.74;59.52
9187;BME280;7273;48.902;9.410;2023-03-15T09:09:27;98149.34;;;6.75;61.21
9187;BME280;7273;48.902;9.410;2023-03-15T09:11:52;98144.28;;;6.79;61.26
9187;BME280;7273;48.902;9.410;2023-03-15T09:14:19;98147.81;;;6.84;61.63
9187;BME280;7273;48.902;9.410;2023-03-15T09:16:45;98152.63;;;7.04;62.26
9187;BME280;7273;48.902;9.410;2023-03-15T09:19:10;98150.69;;;7.00;60.93
9187;BME280;7273;48.902;9.410;2023-03-15T09:21:36;98155.28;;;7.26;62.00
9187;BME280;7273;48.902;9.410;2023-03-15T09:24:01;98156.88;;;7.00;60.44
9187;BME280;7273;48.902;9.410;2023-03-15T09:26:27;98151.31;;;6.85;61.13
9187;BME280;7273;48.902;9.410;2023-03-15T09:28:52;98160.03;;;6.92;61.44
9187;BME280;7273;48.902;9.410;2023-03-15T09:31:18;98159.13;;;6.87;61.57
9187;BME280;7273;48.902;9.410;2023-03-15T09:33:43;98161.31;;;6.90;60.96
9187;BME280;7273;48.902;9.410;2023-03-15T09:36:10;98168.81;;;6.88;62.09
9187;BME280;7273;48.902;9.410;2023-03-15T09:38:36;98164.38;;;6.76;61.17
9187;BME280;7273;48.902;9.410;2023-03-15T09:41:01;98158.75;;;7.00;61.79
9187;BME280;7273;48.902;9.410;2023-03-15T09:46:25;98173.75;;;6.96;60.77
9187;BME280;7273;48.902;9.410;2023-03-15T09:51:48;98166.13;;;7.09;60.98
9187;BME280;7273;48.902;9.410;2023-03-15T09:54:30;98168.44;;;7.01;60.08
9187;BME280;7273;48.902;9.410;2023-03-15T09:57:03;98166.19;;;7.14;61.40
9187;BME280;7273;48.902;9.410;2023-03-15T09:59:42;98169.69;;;7.15;61.14
9187;BME280;7273;48.902;9.410;2023-03-15T10:02:18;98169.50;;;7.21;61.53
9187;BME280;7273;48.902;9.410;2023-03-15T10:04:48;98170.16;;;7.33;61.19
9187;BME280;7273;48.902;9.410;2023-03-15T10:07:16;98169.78;;;7.46;61.76
9187;BME280;7273;48.902;9.410;2023-03-15T10:09:41;98164.03;;;7.38;61.08
9187;BME280;7273;48.902;9.410;2023-03-15T10:20:30;98161.75;;;7.03;60.78
9187;BME280;7273;48.902;9.410;2023-03-15T10:23:20;98162.19;;;6.95;59.83
9187;BME280;7273;48.902;9.410;2023-03-15T10:25:44;98164.97;;;7.00;61.22
9187;BME280;7273;48.902;9.410;2023-03-15T10:30:48;98173.22;;;6.94;60.31
9187;BME280;7273;48.902;9.410;2023-03-15T10:35:39;98171.56;;;7.14;60.28
9187;BME280;7273;48.902;9.410;2023-03-15T10:38:14;98172.13;;;7.16;60.14
9187;BME280;7273;48.902;9.410;2023-03-15T10:40:47;98165.06;;;7.10;60.51
9187;BME280;7273;48.902;9.410;2023-03-15T10:43:25;98166.06;;;7.04;59.34
9187;BME280;7273;48.902;9.410;2023-03-15T10:46:04;98161.00;;;7.08;60.12
9187;BME280;7273;48.902;9.410;2023-03-15T10:48:31;98159.00;;;7.20;60.92
9187;BME280;7273;48.902;9.410;2023-03-15T10:51:18;98165.34;;;7.35;60.13
9187;BME280;7273;48.902;9.410;2023-03-15T10:57:03;98170.25;;;7.43;55.60
9187;BME280;7273;48.902;9.410;2023-03-15T10:59:32;98164.72;;;7.55;60.16
9187;BME280;7273;48.902;9.410;2023-03-15T11:04:40;98164.22;;;7.58;60.35
9187;BME280;7273;48.902;9.410;2023-03-15T11:07:06;98176.72;;;7.42;59.91
9187;BME280;7273;48.902;9.410;2023-03-15T11:09:40;98172.16;;;7.43;60.87
9187;BME280;7273;48.902;9.410;2023-03-15T11:12:08;98174.13;;;7.26;60.13
9187;BME280;7273;48.902;9.410;2023-03-15T11:14:39;98174.56;;;7.18;60.94
9187;BME280;7273;48.902;9.410;2023-03-15T11:17:08;98170.34;;;7.00;60.03
9187;BME280;7273;48.902;9.410;2023-03-15T11:19:41;98167.72;;;6.83;60.82
9187;BME280;7273;48.902;9.410;2023-03-15T11:22:11;98165.78;;;6.79;60.42
9187;BME280;7273;48.902;9.410;2023-03-15T11:24:38;98166.44;;;6.69;60.83
9187;BME280;7273;48.902;9.410;2023-03-15T11:27:11;98169.88;;;6.65;61.12
9187;BME280;7273;48.902;9.410;2023-03-15T11:29:42;98167.88;;;6.55;61.98
9187;BME280;7273;48.902;9.410;2023-03-15T11:32:14;98163.13;;;6.62;62.20
9187;BME280;7273;48.902;9.410;2023-03-15T11:37:14;98164.09;;;6.56;62.12
9187;BME280;7273;48.902;9.410;2023-03-15T11:40:29;98163.63;;;6.59;61.79
9187;BME280;7273;48.902;9.410;2023-03-15T11:42:35;98163.25;;;6.51;61.75
9187;BME280;7273;48.902;9.410;2023-03-15T11:46:02;98162.75;;;6.54;61.86
9187;BME280;7273;48.902;9.410;2023-03-15T11:48:14;98157.22;;;6.44;61.51
9187;BME280;7273;48.902;9.410;2023-03-15T11:50:41;98166.59;;;6.41;61.34
9187;BME280;7273;48.902;9.410;2023-03-15T11:53:09;98163.16;;;6.46;62.06
9187;BME280;7273;48.902;9.410;2023-03-15T11:55:38;98162.91;;;6.47;61.67
9187;BME280;7273;48.902;9.410;2023-03-15T11:58:26;98162.66;;;6.49;62.09
9187;BME280;7273;48.902;9.410;2023-03-15T12:00:59;98161.91;;;6.53;62.46
9187;BME280;7273;48.902;9.410;2023-03-15T12:03:38;98163.50;;;6.49;61.85
9187;BME280;7273;48.902;9.410;2023-03-15T12:08:44;98171.56;;;6.49;62.41
9187;BME280;7273;48.902;9.410;2023-03-15T12:19:00;98181.81;;;6.36;63.87
9187;BME280;7273;48.902;9.410;2023-03-15T12:21:37;98177.69;;;6.28;64.30
9187;BME280;7273;48.902;9.410;2023-03-15T12:24:15;98188.44;;;6.28;64.44
9187;BME280;7273;48.902;9.410;2023-03-15T12:26:44;98183.88;;;6.29;64.93
9187;BME280;7273;48.902;9.410;2023-03-15T12:29:20;98188.97;;;6.30;64.61
9187;BME280;7273;48.902;9.410;2023-03-15T12:34:34;98195.75;;;6.16;65.42
9187;BME280;7273;48.902;9.410;2023-03-15T12:37:06;98199.66;;;6.25;65.68
9187;BME280;7273;48.902;9.410;2023-03-15T12:39:47;98198.84;;;6.08;65.80
9187;BME280;7273;48.902;9.410;2023-03-15T12:53:02;98223.09;;;5.69;67.13
9187;BME280;7273;48.902;9.410;2023-03-15T12:55:33;98214.88;;;5.59;67.07
9187;BME280;7273;48.902;9.410;2023-03-15T12:57:59;98209.31;;;5.48;67.61
9187;BME280;7273;48.902;9.410;2023-03-15T13:00:39;98202.03;;;5.32;67.53
9187;BME280;7273;48.902;9.410;2023-03-15T13:03:21;98194.97;;;5.26;67.94
9187;BME280;7273;48.902;9.410;2023-03-15T13:08:56;98200.94;;;5.17;68.56
9187;BME280;7273;48.902;9.410;2023-03-15T13:11:37;98215.16;;;5.17;69.02
9187;BME280;7273;48.902;9.410;2023-03-15T13:17:11;98216.78;;;5.18;68.99
9187;BME280;7273;48.902;9.410;2023-03-15T13:19:52;98222.78;;;5.09;69.00
9187;BME280;7273;48.902;9.410;2023-03-15T13:28:21;98210.66;;;5.06;69.31
9187;BME280;7273;48.902;9.410;2023-03-15T13:30:52;98214.88;;;5.02;69.75
9187;BME280;7273;48.902;9.410;2023-03-15T13:33:26;98200.88;;;5.00;70.06
9187;BME280;7273;48.902;9.410;2023-03-15T13:35:54;98206.69;;;5.09;70.32
9187;BME280;7273;48.902;9.410;2023-03-15T13:38:26;98201.00;;;5.05;70.34
9187;BME280;7273;48.902;9.410;2023-03-15T13:40:53;98200.00;;;5.23;70.44
9187;BME280;7273;48.902;9.410;2023-03-15T13:43:18;98202.03;;;5.32;70.58
9187;BME280;7273;48.902;9.410;2023-03-15T13:45:44;98187.13;;;5.36;70.33
9187;BME280;7273;48.902;9.410;2023-03-15T13:48:10;98188.44;;;5.50;69.62
9187;BME280;7273;48.902;9.410;2023-03-15T13:50:36;98191.31;;;5.61;69.39
9187;BME280;7273;48.902;9.410;2023-03-15T13:53:02;98189.44;;;5.61;69.30
9187;BME280;7273;48.902;9.410;2023-03-15T13:55:32;98187.50;;;5.73;68.96
9187;BME280;7273;48.902;9.410;2023-03-15T13:57:59;98184.19;;;5.83;69.13
9187;BME280;7273;48.902;9.410;2023-03-15T14:00:30;98186.25;;;5.92;68.76
9187;BME280;7273;48.902;9.410;2023-03-15T14:03:01;98188.19;;;5.97;67.81
9187;BME280;7273;48.902;9.410;2023-03-15T14:05:32;98188.63;;;6.05;68.13
9187;BME280;7273;48.902;9.410;2023-03-15T14:08:03;98183.78;;;6.07;67.98
9187;BME280;7273;48.902;9.410;2023-03-15T14:10:37;98191.06;;;6.07;67.35
9187;BME280;7273;48.902;9.410;2023-03-15T14:13:24;98196.66;;;6.05;67.32
9187;BME280;7273;48.902;9.410;2023-03-15T14:15:56;98194.94;;;5.99;67.61
9187;BME280;7273;48.902;9.410;2023-03-15T14:18:24;98207.47;;;5.94;67.88
9187;BME280;7273;48.902;9.410;2023-03-15T14:20:56;98208.69;;;5.86;68.18
9187;BME280;7273;48.902;9.410;2023-03-15T14:23:25;98215.28;;;5.67;69.53
9187;BME280;7273;48.902;9.410;2023-03-15T14:28:33;98201.84;;;5.22;71.03
9187;BME280;7273;48.902;9.410;2023-03-15T14:30:59;98199.69;;;5.08;72.61
9187;BME280;7273;48.902;9.410;2023-03-15T14:36:04;98199.25;;;4.88;72.94
9187;BME280;7273;48.902;9.410;2023-03-15T14:38:31;98198.72;;;4.86;74.78
9187;BME280;7273;48.902;9.410;2023-03-15T14:41:15;98194.38;;;4.85;74.00
9187;BME280;7273;48.902;9.410;2023-03-15T14:43:41;98186.59;;;4.83;73.56
9187;BME280;7273;48.902;9.410;2023-03-15T14:46:07;98191.94;;;4.83;73.08
9187;BME280;7273;48.902;9.410;2023-03-15T14:48:33;98204.56;;;4.71;75.32
9187;BME280;7273;48.902;9.410;2023-03-15T14:50:58;98204.09;;;4.74;73.96
9187;BME280;7273;48.902;9.410;2023-03-15T14:53:25;98201.28;;;4.81;73.00
9187;BME280;7273;48.902;9.410;2023-03-15T14:55:54;98188.13;;;4.79;72.86
9187;BME280;7273;48.902;9.410;2023-03-15T14:58:21;98187.88;;;4.81;72.88